West Henrietta, NY

3:01 PM EST on November 24, 2014 (GMT -0500)
Greater Rochester International | Change Station
CLOSE
Current Station
Airport
Location: Rochester,
Elevation: 554 ft
Nearby Weather Stations
Active Advisory: High Wind Warning

Elev 554 ft 43.12 °N, 77.68 °W | Updated 1 hour ago

Partly Cloudy
Partly Cloudy
69 °F
Feels Like 69 °F
N
16
Wind Variable Wind from SSW
Gusts 26 mph

Today
High -- | Low -- °F
--% Chance of Precip.
Yesterday
High -- | Low -- °F
Precip. -- in
7:14 AM 4:40 PM
Waxing Crescent, 7% visible
Pressure 29.26 in
Visibility 10.0 miles
Clouds Few 4300 ft
Scattered Clouds 11000 ft
Dew Point 48 °F
Humidity 47%
Rainfall 0.07 in
Snow Depth Not available.
UV 1 out of 12
Pollen .10 out of 12
Air Quality Not available.
Flu Activity Not available.
METAR KROC 241854Z COR 20014G23KT 10SM FEW043 SCT110 21/09 A2926 RMK AO2 PK WND 19033/1824 RAB26E38 SLP909 SCT V BKN P0000 T02060089

More Conditions Fewer Conditions

Pressure 29.26 in
Visibility 10.0 miles
Clouds Few 4300 ft
Scattered Clouds 11000 ft
Dew Point 48 °F
Humidity 47%
Rainfall 0.07 in
Snow Depth Not available.
UV 1 out of 12
Pollen .10 out of 12
Air Quality Not available.
Flu Activity Not available.
METAR KROC 241854Z COR 20014G23KT 10SM FEW043 SCT110 21/09 A2926 RMK AO2 PK WND 19033/1824 RAB26E38 SLP909 SCT V BKN P0000 T02060089

More Conditions Fewer Conditions

10-Day Weather Forecast

Almanac

Astronomy

Nov. 24, 2014 Rise Set
Actual Time
Civil Twilight
Nautical Twilight
Astronomical Twilight
Moon
Length of Visible Light
Length of Day
Tomorrow will be .
, % of the Moon is Illuminated

Today's Extremes

State Highs State Lows

Community

WunderPhotos

Upload Photos

1,773,401 photos uploaded!

WunderBlogs® & News

Nearby

Air Quality

  Air Quality AQ Index Pollutant
Not available.

Snow Depth

Station Depth Elevation

Earthquake Activity

City Distance Mag. Time & Date
Minimum magnitude displayed is 2.5.

Coastal Water Temperatures

Place Temperature

Nearby Weather Stations